Terminal Aerodrome Forecast
Issued by NWS Louisville, KY

Home | Current Version | Previous Version | Text Only | Print | Product List | Glossary On
Versions: 1 2 3 4 5 6 7 8 9 10 11 12 13
000
FTUS43 KLMK 011721
TAFBWG
TAF
KBWG 011721Z 0118/0218 VRB04KT P6SM FEW045 SCT250
     FM020700 00000KT 4SM BR FEW250
      TEMPO 0209/0213 2SM BR FEW250
     FM021300 30004KT P6SM FEW040=

USA.gov is the U.S. government's official web portal to all federal, state and local government web resources and services.